createdAt,value
2023-01-13T00:01:18.291Z,32.90
2023-01-13T00:05:21.631Z,32.10
2023-01-13T00:09:25.169Z,23.10
2023-01-13T00:13:28.528Z,25.10
2023-01-13T00:17:31.888Z,27.80
2023-01-13T00:21:36.026Z,27.00
2023-01-13T00:25:39.461Z,29.10
2023-01-13T00:29:42.826Z,26.70
2023-01-13T00:33:46.911Z,28.60
2023-01-13T00:37:50.228Z,26.70
2023-01-13T00:42:11.984Z,27.60
2023-01-13T00:46:18.367Z,29.30
2023-01-13T00:50:21.744Z,30.50
2023-01-13T00:54:25.796Z,30.40
2023-01-13T00:58:31.194Z,27.00
2023-01-13T01:02:34.570Z,31.50
2023-01-13T01:06:38.322Z,27.40
2023-01-13T01:10:41.834Z,23.70
2023-01-13T01:14:45.311Z,27.20
2023-01-13T01:18:50.500Z,30.40
2023-01-13T01:22:53.843Z,29.40
2023-01-13T01:26:57.175Z,26.90
2023-01-13T01:31:00.690Z,21.80
2023-01-13T01:35:05.208Z,25.60
2023-01-13T01:39:08.610Z,26.00
2023-01-13T01:43:39.999Z,26.70
2023-01-13T01:47:43.596Z,32.20
2023-01-13T01:51:59.018Z,24.60
2023-01-13T01:56:03.778Z,23.70
2023-01-13T02:00:07.958Z,26.30
2023-01-13T02:04:23.527Z,25.30
2023-01-13T02:08:26.868Z,23.40
2023-01-13T02:12:30.594Z,25.40
2023-01-13T02:16:34.131Z,25.30
2023-01-13T02:20:56.889Z,22.10
2023-01-13T02:25:20.678Z,19.40
2023-01-13T02:30:04.963Z,23.50
2023-01-13T02:34:20.967Z,17.00
2023-01-13T02:38:31.783Z,23.90
2023-01-13T02:42:59.604Z,21.80
2023-01-13T02:47:19.211Z,17.30
2023-01-13T02:51:27.374Z,20.60
2023-01-13T02:55:36.554Z,23.30
2023-01-13T02:59:41.216Z,20.90
2023-01-13T03:03:44.866Z,21.50
2023-01-13T03:08:15.881Z,19.50
2023-01-13T03:12:32.870Z,20.40
2023-01-13T03:16:58.509Z,21.40
2023-01-13T03:21:11.997Z,18.10
2023-01-13T03:25:26.484Z,19.50
2023-01-13T03:30:14.409Z,21.80
2023-01-13T03:34:22.727Z,19.30
2023-01-13T03:38:32.991Z,18.80
2023-01-13T03:42:38.607Z,23.90
2023-01-13T03:46:45.221Z,17.30
2023-01-13T03:50:52.462Z,17.80
2023-01-13T03:55:02.044Z,17.30
2023-01-13T03:59:08.270Z,19.50
2023-01-13T04:03:20.316Z,16.20
2023-01-13T04:07:38.869Z,19.00
2023-01-13T04:11:59.176Z,20.30
2023-01-13T04:16:02.729Z,19.80
2023-01-13T04:20:06.653Z,17.30
2023-01-13T04:24:10.285Z,20.70
2023-01-13T04:28:14.633Z,24.20
2023-01-13T04:32:18.039Z,17.80
2023-01-13T04:36:25.453Z,17.50
2023-01-13T04:40:28.739Z,17.90
2023-01-13T04:44:35.484Z,24.60
2023-01-13T04:48:38.764Z,19.20
2023-01-13T04:52:42.023Z,19.40
2023-01-13T04:56:45.327Z,17.70
2023-01-13T05:00:50.885Z,20.10
2023-01-13T05:04:54.245Z,16.00
2023-01-13T05:08:57.648Z,16.80
2023-01-13T05:13:19.653Z,18.30
2023-01-13T05:17:25.357Z,25.10
2023-01-13T05:21:46.980Z,14.70
2023-01-13T05:25:51.319Z,17.20
2023-01-13T05:29:56.488Z,14.80
2023-01-13T05:33:59.812Z,13.80
2023-01-13T05:38:03.091Z,15.60
2023-01-13T05:42:25.240Z,18.00
2023-01-13T05:46:28.565Z,17.80
2023-01-13T05:50:31.927Z,16.10
2023-01-13T05:54:41.426Z,15.40
2023-01-13T05:58:45.061Z,16.70
2023-01-13T06:02:49.881Z,16.90
2023-01-13T06:06:53.268Z,15.70
2023-01-13T06:10:56.752Z,18.00
2023-01-13T06:14:59.997Z,14.70
2023-01-13T06:19:03.294Z,14.10
2023-01-13T06:23:11.020Z,15.50
2023-01-13T06:27:15.636Z,15.40
2023-01-13T06:31:19.799Z,17.90
2023-01-13T06:35:28.691Z,13.30
2023-01-13T06:39:32.449Z,13.50
2023-01-13T06:43:36.115Z,15.00
2023-01-13T06:47:41.142Z,15.20
2023-01-13T06:51:44.456Z,13.50
2023-01-13T06:55:47.740Z,11.30
2023-01-13T06:59:51.081Z,11.40
2023-01-13T07:03:54.325Z,10.40
2023-01-13T07:07:57.596Z,10.80
2023-01-13T07:12:00.866Z,10.30
2023-01-13T07:16:06.602Z,12.70
2023-01-13T07:20:10.870Z,12.20
2023-01-13T07:24:14.258Z,10.30
2023-01-13T07:28:17.950Z,9.30
2023-01-13T07:32:21.568Z,9.30
2023-01-13T07:36:24.798Z,8.50
2023-01-13T07:40:28.154Z,17.10
2023-01-13T07:44:31.591Z,10.60
2023-01-13T07:48:35.356Z,14.40
2023-01-13T07:52:38.677Z,11.30
2023-01-13T07:56:41.975Z,10.60
2023-01-13T08:00:45.219Z,12.30
2023-01-13T08:04:48.482Z,11.70
2023-01-13T08:08:52.036Z,9.90
2023-01-13T08:13:13.986Z,8.90
2023-01-13T08:17:19.157Z,12.10
2023-01-13T08:21:23.761Z,7.50
2023-01-13T08:25:28.728Z,11.30
2023-01-13T08:29:32.046Z,9.50
2023-01-13T08:33:38.044Z,8.70
2023-01-13T08:37:41.708Z,11.00
2023-01-13T08:41:57.792Z,13.40
2023-01-13T08:46:05.015Z,10.10
2023-01-13T08:50:09.370Z,9.30
2023-01-13T08:54:13.468Z,10.60
2023-01-13T08:58:16.729Z,9.00
2023-01-13T09:02:22.147Z,12.40
2023-01-13T09:06:25.457Z,9.30
2023-01-13T09:10:28.702Z,9.80
2023-01-13T09:14:34.549Z,8.30
2023-01-13T09:18:37.764Z,10.10
2023-01-13T09:22:41.709Z,7.90
2023-01-13T09:26:45.161Z,9.20
2023-01-13T09:30:48.393Z,11.50
2023-01-13T09:35:00.833Z,9.60
2023-01-13T09:39:04.508Z,11.20
2023-01-13T09:43:36.038Z,7.70
2023-01-13T09:47:51.484Z,7.30
2023-01-13T09:52:12.426Z,9.60
2023-01-13T09:56:15.736Z,7.60
2023-01-13T10:00:25.626Z,8.20
2023-01-13T10:04:28.929Z,7.20
2023-01-13T10:08:35.674Z,8.40
2023-01-13T10:12:58.509Z,12.20
2023-01-13T10:17:23.852Z,7.60
2023-01-13T10:21:49.011Z,6.60
2023-01-13T10:26:24.321Z,9.30
2023-01-13T10:30:34.388Z,8.50
2023-01-13T10:34:51.662Z,11.90
2023-01-13T10:39:08.807Z,9.80
2023-01-13T10:43:12.043Z,13.10
2023-01-13T10:47:22.931Z,7.80
2023-01-13T10:55:37.165Z,13.20
2023-01-13T10:59:40.408Z,7.80
2023-01-13T11:03:45.433Z,9.20
2023-01-13T11:07:52.767Z,9.50
2023-01-13T11:11:57.338Z,12.30
2023-01-13T11:16:14.181Z,21.50
2023-01-13T11:20:46.806Z,29.60
2023-01-13T11:24:59.040Z,22.20
2023-01-13T11:29:17.991Z,21.50
2023-01-13T11:34:11.010Z,17.00
2023-01-13T11:38:31.237Z,18.90
2023-01-13T11:42:59.359Z,15.80
2023-01-13T11:47:02.982Z,21.70
2023-01-13T11:51:15.284Z,14.20
2023-01-13T11:55:47.710Z,11.40
2023-01-13T12:00:12.384Z,10.90
2023-01-13T12:04:23.813Z,8.60
2023-01-13T12:08:54.927Z,12.10
2023-01-13T12:13:40.615Z,9.20
2023-01-13T12:17:56.228Z,9.50
2023-01-13T12:22:11.808Z,14.00
2023-01-13T12:26:17.225Z,52.30
2023-01-13T12:30:46.021Z,37.60
2023-01-13T12:35:27.741Z,31.70
2023-01-13T12:39:58.990Z,25.30
2023-01-13T12:44:18.261Z,12.90
2023-01-13T12:52:49.740Z,13.80
2023-01-13T12:56:54.243Z,12.80
2023-01-13T13:01:01.028Z,16.70
2023-01-13T13:05:23.152Z,11.90
2023-01-13T13:09:31.924Z,16.00
2023-01-13T13:18:13.973Z,11.70
2023-01-13T13:22:21.216Z,12.60
2023-01-13T13:26:37.155Z,12.20
2023-01-13T13:30:50.354Z,12.50
2023-01-13T13:35:05.679Z,11.50
2023-01-13T13:39:41.213Z,13.00
2023-01-13T13:44:05.103Z,12.80
2023-01-13T13:48:28.091Z,20.10
2023-01-13T13:52:42.774Z,20.00
2023-01-13T13:56:47.944Z,16.10
2023-01-13T14:00:51.477Z,21.90
2023-01-13T14:05:19.181Z,24.50
2023-01-13T14:09:23.944Z,20.40
2023-01-13T14:13:29.624Z,20.60
2023-01-13T14:17:34.770Z,18.10
2023-01-13T14:21:38.741Z,12.90
2023-01-13T14:25:52.363Z,19.30
2023-01-13T14:29:58.521Z,17.00
2023-01-13T14:34:31.196Z,18.40
2023-01-13T14:38:27.009Z,26.10
2023-01-13T14:42:31.756Z,101.40
2023-01-13T14:46:40.496Z,44.30
2023-01-13T14:50:46.778Z,30.80
2023-01-13T14:54:53.170Z,27.80
2023-01-13T14:58:56.741Z,32.50
2023-01-13T15:03:08.448Z,29.90
2023-01-13T15:07:26.573Z,25.70
2023-01-13T15:11:29.951Z,23.40
2023-01-13T15:15:35.458Z,28.40
2023-01-13T15:19:38.738Z,25.40
2023-01-13T15:23:42.854Z,25.30
2023-01-13T15:27:50.859Z,21.40
2023-01-13T15:31:54.183Z,25.90
2023-01-13T15:35:57.549Z,25.00
2023-01-13T15:40:01.013Z,16.80
2023-01-13T15:44:23.118Z,17.70
2023-01-13T15:48:30.946Z,21.10
2023-01-13T15:52:34.266Z,16.00
2023-01-13T15:56:39.362Z,16.80
2023-01-13T16:00:43.119Z,16.90
2023-01-13T16:04:46.420Z,17.80
2023-01-13T16:08:49.699Z,19.50
2023-01-13T16:12:55.953Z,15.90
2023-01-13T16:16:59.530Z,16.00
2023-01-13T16:21:02.812Z,16.50
2023-01-13T16:25:06.504Z,17.50
2023-01-13T16:29:09.979Z,19.00
2023-01-13T16:33:13.736Z,27.00
2023-01-13T16:37:23.084Z,18.50
2023-01-13T16:41:26.960Z,21.50
2023-01-13T16:45:31.373Z,17.10
2023-01-13T16:49:35.128Z,18.30
2023-01-13T16:53:38.532Z,17.80
2023-01-13T16:57:42.411Z,18.60
2023-01-13T17:01:46.013Z,19.70
2023-01-13T17:05:49.282Z,18.50
2023-01-13T17:09:52.937Z,21.00
2023-01-13T17:13:56.309Z,15.40
2023-01-13T17:17:59.538Z,18.70
2023-01-13T17:22:02.828Z,17.90
2023-01-13T17:26:06.375Z,17.00
2023-01-13T17:30:11.315Z,19.30
2023-01-13T17:34:15.145Z,21.00
2023-01-13T17:38:18.478Z,18.60
2023-01-13T17:42:24.609Z,19.60
2023-01-13T17:46:28.205Z,17.30
2023-01-13T17:50:34.345Z,19.20
2023-01-13T17:54:37.989Z,18.10
2023-01-13T17:58:42.323Z,18.80
2023-01-13T18:02:46.099Z,16.90
2023-01-13T18:06:50.505Z,17.00
2023-01-13T18:10:55.373Z,18.30
2023-01-13T18:14:59.840Z,18.30
2023-01-13T18:19:22.947Z,16.10
2023-01-13T18:23:45.178Z,20.00
2023-01-13T18:27:48.810Z,19.40
2023-01-13T18:31:52.970Z,24.30
2023-01-13T18:35:56.655Z,20.60
2023-01-13T18:40:00.283Z,19.20
2023-01-13T18:44:03.867Z,18.50
2023-01-13T18:48:07.413Z,21.10
2023-01-13T18:52:11.270Z,20.80
2023-01-13T18:56:14.668Z,17.00
2023-01-13T19:00:20.603Z,21.90
2023-01-13T19:04:24.025Z,24.00
2023-01-13T19:08:27.573Z,19.90
2023-01-13T19:12:31.255Z,22.40
2023-01-13T19:16:35.101Z,24.50
2023-01-13T19:20:38.445Z,19.20
2023-01-13T19:24:44.637Z,16.10
2023-01-13T19:28:48.870Z,23.60
2023-01-13T19:32:54.084Z,27.70
2023-01-13T19:36:57.911Z,19.90
2023-01-13T19:41:07.051Z,19.00
2023-01-13T19:45:29.719Z,20.60
2023-01-13T19:49:33.884Z,19.80
2023-01-13T19:53:37.181Z,22.90
2023-01-13T19:57:41.125Z,28.10
2023-01-13T20:01:44.639Z,19.80
2023-01-13T20:05:48.083Z,24.70
2023-01-13T20:09:56.438Z,22.40
2023-01-13T20:14:01.264Z,21.30
2023-01-13T20:18:04.673Z,22.80
2023-01-13T20:22:09.216Z,23.10
2023-01-13T20:26:12.523Z,24.10
2023-01-13T20:30:16.171Z,22.10
2023-01-13T20:34:19.993Z,18.90
2023-01-13T20:38:23.251Z,21.20
2023-01-13T20:42:29.439Z,21.80
2023-01-13T20:46:32.921Z,20.00
2023-01-13T20:50:36.170Z,21.30
2023-01-13T20:54:41.024Z,27.20
2023-01-13T20:58:44.425Z,21.00
2023-01-13T21:02:47.812Z,26.00
2023-01-13T21:06:51.274Z,22.10
2023-01-13T21:11:04.689Z,28.80
2023-01-13T21:15:17.909Z,26.10
2023-01-13T21:19:21.203Z,18.70
2023-01-13T21:23:24.515Z,21.60
2023-01-13T21:27:28.162Z,26.30
2023-01-13T21:31:31.503Z,24.00
2023-01-13T21:35:39.005Z,20.90
2023-01-13T21:39:43.203Z,23.30
2023-01-13T21:44:05.822Z,19.40
2023-01-13T21:48:09.444Z,21.10
2023-01-13T21:52:13.883Z,19.80
2023-01-13T21:56:17.129Z,23.00
2023-01-13T22:00:22.621Z,25.50
2023-01-13T22:04:25.952Z,26.30
2023-01-13T22:08:29.402Z,20.60
2023-01-13T22:12:32.848Z,21.30
2023-01-13T22:16:39.515Z,24.70
2023-01-13T22:20:42.787Z,20.90
2023-01-13T22:24:47.923Z,23.00
2023-01-13T22:28:51.824Z,24.90
2023-01-13T22:32:55.249Z,17.00
2023-01-13T22:36:59.708Z,22.20
2023-01-13T22:41:09.107Z,24.00
2023-01-13T22:45:13.684Z,25.10
2023-01-13T22:49:17.934Z,26.20
2023-01-13T22:53:21.969Z,22.60
2023-01-13T22:57:25.179Z,38.00
2023-01-13T23:01:31.122Z,20.80
2023-01-13T23:05:34.923Z,24.90
2023-01-13T23:09:38.124Z,24.60
2023-01-13T23:13:43.448Z,18.60
2023-01-13T23:17:50.461Z,21.00
2023-01-13T23:21:53.784Z,19.50
2023-01-13T23:25:57.020Z,21.20
2023-01-13T23:30:01.504Z,26.80
2023-01-13T23:34:04.954Z,20.50
2023-01-13T23:38:08.150Z,19.10
2023-01-13T23:42:11.385Z,20.50
2023-01-13T23:46:16.768Z,23.80
2023-01-13T23:50:20.008Z,22.60
2023-01-13T23:54:23.316Z,27.60
2023-01-13T23:58:27.996Z,20.60
